createdAt,value
2022-12-31T00:03:01.497Z,1.81
2022-12-31T00:09:06.852Z,1.08
2022-12-31T00:15:09.283Z,2.30
2022-12-31T00:21:12.745Z,1.92
2022-12-31T00:27:15.284Z,0.81
2022-12-31T00:33:18.931Z,1.73
2022-12-31T00:39:21.150Z,1.69
2022-12-31T00:45:24.609Z,1.41
2022-12-31T00:51:31.082Z,0.71
2022-12-31T00:57:33.519Z,1.52
2022-12-31T01:03:36.029Z,1.72
2022-12-31T01:09:38.459Z,0.82
2022-12-31T01:15:40.995Z,0.82
2022-12-31T01:21:44.398Z,1.41
2022-12-31T01:27:46.846Z,1.57
2022-12-31T01:33:49.305Z,1.39
2022-12-31T01:39:51.819Z,0.80
2022-12-31T01:45:55.370Z,1.83
2022-12-31T01:52:03.783Z,1.93
2022-12-31T01:58:12.275Z,1.60
2022-12-31T02:04:16.096Z,1.19
2022-12-31T02:10:18.239Z,1.49
2022-12-31T02:16:32.758Z,1.60
2022-12-31T02:23:03.420Z,1.59
2022-12-31T02:29:29.844Z,1.55
2022-12-31T02:35:49.357Z,1.01
2022-12-31T02:41:52.086Z,1.52
2022-12-31T02:48:06.447Z,0.81
2022-12-31T02:54:38.011Z,1.47
2022-12-31T03:01:05.724Z,1.13
2022-12-31T03:07:23.129Z,0.37
2022-12-31T03:13:25.559Z,0.85
2022-12-31T03:19:46.088Z,1.03
2022-12-31T03:25:48.569Z,1.21
2022-12-31T03:31:51.074Z,1.26
2022-12-31T03:37:54.472Z,0.06
2022-12-31T03:43:56.991Z,0.28
2022-12-31T03:49:59.443Z,1.15
2022-12-31T03:56:01.873Z,1.15
2022-12-31T04:02:04.488Z,0.85
2022-12-31T04:08:07.448Z,1.01
2022-12-31T04:14:10.307Z,0.51
2022-12-31T04:20:12.761Z,0.54
2022-12-31T04:26:14.737Z,0.86
2022-12-31T04:32:16.703Z,0.64
2022-12-31T04:38:18.563Z,0.40
2022-12-31T04:44:20.799Z,0.37
2022-12-31T04:50:22.566Z,0.26
2022-12-31T04:56:25.576Z,0.65
2022-12-31T05:02:28.129Z,0.90
2022-12-31T05:08:31.495Z,0.76
2022-12-31T05:14:33.953Z,-0.46
2022-12-31T05:20:36.393Z,0.14
2022-12-31T05:26:38.178Z,0.13
2022-12-31T05:32:40.347Z,-0.52
2022-12-31T05:38:42.790Z,-0.54
2022-12-31T05:44:45.239Z,-0.16
2022-12-31T05:50:47.730Z,-0.36
2022-12-31T05:56:49.788Z,-0.24
2022-12-31T06:02:51.736Z,-0.68
2022-12-31T06:08:53.601Z,-0.05
2022-12-31T06:14:57.648Z,0.03
2022-12-31T06:21:00.053Z,0.00
2022-12-31T06:27:02.507Z,0.40
2022-12-31T06:33:07.283Z,0.43
2022-12-31T06:39:09.469Z,0.46
2022-12-31T06:45:11.955Z,0.74
2022-12-31T06:51:20.414Z,0.03
2022-12-31T06:57:23.912Z,-0.12
2022-12-31T07:03:57.529Z,0.49
2022-12-31T07:10:41.135Z,0.64
2022-12-31T07:17:09.695Z,1.35
2022-12-31T07:23:12.173Z,1.46
2022-12-31T07:29:28.666Z,1.73
2022-12-31T07:35:55.241Z,1.96
2022-12-31T07:42:53.952Z,1.50
2022-12-31T07:48:56.483Z,2.59
2022-12-31T07:54:58.863Z,1.74
2022-12-31T08:01:02.483Z,3.28
2022-12-31T08:07:17.850Z,3.65
2022-12-31T08:13:19.910Z,3.90
2022-12-31T08:19:28.811Z,3.34
2022-12-31T08:26:09.214Z,3.65
2022-12-31T08:32:23.943Z,3.60
2022-12-31T08:38:50.481Z,4.60
2022-12-31T08:45:11.027Z,4.19
2022-12-31T08:51:21.536Z,4.18
2022-12-31T08:57:40.038Z,5.05
2022-12-31T09:04:23.687Z,5.08
2022-12-31T09:10:34.912Z,5.68
2022-12-31T09:16:44.684Z,6.43
2022-12-31T09:22:47.118Z,6.72
2022-12-31T09:28:57.589Z,6.70
2022-12-31T09:35:35.210Z,6.54
2022-12-31T09:42:25.863Z,6.26
2022-12-31T09:49:27.564Z,7.17
2022-12-31T09:55:37.074Z,7.39
2022-12-31T10:01:56.704Z,8.02
2022-12-31T10:07:59.055Z,8.28
2022-12-31T10:14:32.664Z,8.64
2022-12-31T10:21:05.222Z,8.62
2022-12-31T10:27:33.839Z,8.01
2022-12-31T10:33:48.348Z,8.95
2022-12-31T10:40:18.936Z,8.35
2022-12-31T10:46:48.531Z,9.66
2022-12-31T10:53:16.080Z,9.57
2022-12-31T10:59:44.985Z,9.79
2022-12-31T11:05:47.113Z,10.59
2022-12-31T11:12:10.650Z,10.83
2022-12-31T11:18:23.184Z,11.34
2022-12-31T11:24:26.622Z,11.84
2022-12-31T11:30:39.197Z,11.86
2022-12-31T11:36:52.664Z,11.52
2022-12-31T11:43:12.255Z,11.94
2022-12-31T11:49:43.801Z,12.36
2022-12-31T11:56:02.742Z,12.39
2022-12-31T12:02:18.438Z,12.65
2022-12-31T12:08:21.359Z,12.79
2022-12-31T12:14:41.872Z,12.79
2022-12-31T12:20:47.318Z,13.22
2022-12-31T12:26:52.813Z,12.75
2022-12-31T12:33:01.938Z,13.22
2022-12-31T12:39:07.409Z,13.08
2022-12-31T12:45:18.842Z,13.18
2022-12-31T12:51:26.930Z,12.98
2022-12-31T12:57:42.396Z,13.16
2022-12-31T13:04:32.926Z,13.05
2022-12-31T13:10:29.388Z,13.06
2022-12-31T13:16:37.890Z,13.15
2022-12-31T13:22:50.367Z,12.92
2022-12-31T13:28:53.795Z,12.62
2022-12-31T13:35:03.317Z,12.40
2022-12-31T13:41:28.850Z,12.49
2022-12-31T13:47:39.572Z,12.14
2022-12-31T13:54:04.928Z,11.85
2022-12-31T14:00:21.391Z,11.60
2022-12-31T14:06:35.930Z,11.63
2022-12-31T14:13:00.519Z,11.32
2022-12-31T14:19:32.478Z,10.89
2022-12-31T14:25:47.540Z,10.74
2022-12-31T14:31:50.085Z,10.83
2022-12-31T14:38:06.523Z,10.46
2022-12-31T14:44:37.119Z,10.43
2022-12-31T14:50:39.551Z,9.85
2022-12-31T14:56:46.075Z,9.88
2022-12-31T15:02:53.415Z,9.73
2022-12-31T15:09:31.138Z,9.72
2022-12-31T15:15:55.694Z,9.41
2022-12-31T15:22:34.327Z,9.50
2022-12-31T15:28:39.807Z,9.84
2022-12-31T15:34:44.219Z,9.76
2022-12-31T15:40:53.598Z,10.11
2022-12-31T15:47:08.276Z,10.18
2022-12-31T15:53:29.983Z,10.07
2022-12-31T15:59:34.449Z,10.13
2022-12-31T16:05:43.934Z,10.09
2022-12-31T16:11:50.305Z,10.30
2022-12-31T16:18:08.810Z,10.00
2022-12-31T16:24:31.353Z,10.04
2022-12-31T16:30:36.804Z,9.90
2022-12-31T16:36:39.259Z,9.48
2022-12-31T16:42:44.418Z,9.80
2022-12-31T16:49:23.373Z,9.51
2022-12-31T16:55:29.844Z,9.60
2022-12-31T17:01:35.430Z,9.76
2022-12-31T17:07:41.746Z,9.89
2022-12-31T17:13:46.215Z,9.41
2022-12-31T17:19:50.736Z,9.67
2022-12-31T17:26:12.231Z,8.91
2022-12-31T17:32:37.763Z,8.71
2022-12-31T17:38:40.227Z,8.81
2022-12-31T17:44:46.686Z,8.87
2022-12-31T17:50:53.146Z,8.81
2022-12-31T17:56:55.632Z,8.80
2022-12-31T18:02:58.143Z,8.48
2022-12-31T18:08:59.931Z,8.79
2022-12-31T18:15:01.994Z,8.95
2022-12-31T18:21:08.508Z,8.70
2022-12-31T18:27:19.004Z,9.23
2022-12-31T18:33:25.454Z,9.03
2022-12-31T18:39:27.990Z,8.97
2022-12-31T18:45:30.505Z,8.37
2022-12-31T18:51:33.914Z,8.93
2022-12-31T18:57:36.371Z,9.09
2022-12-31T19:03:38.842Z,8.41
2022-12-31T19:09:46.018Z,8.13
2022-12-31T19:15:51.808Z,8.04
2022-12-31T19:21:54.256Z,7.26
2022-12-31T19:27:56.779Z,7.22
2022-12-31T19:33:59.150Z,7.47
2022-12-31T19:40:03.689Z,7.30
2022-12-31T19:46:06.115Z,7.98
2022-12-31T19:52:08.579Z,8.23
2022-12-31T19:58:20.091Z,7.67
2022-12-31T20:04:22.581Z,7.86
2022-12-31T20:10:25.042Z,7.47
2022-12-31T20:16:27.559Z,7.51
2022-12-31T20:22:29.951Z,7.04
2022-12-31T20:28:32.485Z,7.47
2022-12-31T20:34:34.942Z,7.09
2022-12-31T20:40:42.893Z,6.39
2022-12-31T20:46:48.942Z,7.10
2022-12-31T20:52:51.408Z,6.50
2022-12-31T20:58:53.902Z,5.63
2022-12-31T21:04:56.432Z,6.22
2022-12-31T21:10:59.838Z,6.62
2022-12-31T21:17:02.276Z,6.94
2022-12-31T21:23:04.750Z,7.02
2022-12-31T21:29:07.228Z,6.83
2022-12-31T21:41:51.387Z,6.35
2022-12-31T21:48:11.919Z,6.45
2022-12-31T21:54:34.552Z,6.31
2022-12-31T22:00:56.087Z,5.51
2022-12-31T22:06:58.519Z,5.20
2022-12-31T22:13:01.004Z,5.79
2022-12-31T22:19:03.466Z,5.99
2022-12-31T22:25:06.924Z,6.04
2022-12-31T22:31:22.485Z,6.01
2022-12-31T22:37:55.497Z,5.62
2022-12-31T22:43:55.991Z,5.50
2022-12-31T22:50:02.946Z,5.49
2022-12-31T22:56:10.444Z,5.56
2022-12-31T23:02:12.892Z,5.24
2022-12-31T23:08:22.236Z,5.31
2022-12-31T23:14:44.160Z,5.40
2022-12-31T23:21:04.592Z,5.23
2022-12-31T23:27:07.973Z,5.95
2022-12-31T23:33:20.517Z,5.26
2022-12-31T23:39:22.961Z,5.85
2022-12-31T23:45:31.111Z,5.52
2022-12-31T23:51:36.904Z,5.78
2022-12-31T23:57:39.371Z,5.97
